createdAt,value
2022-11-13T00:03:53.038Z,4.38
2022-11-13T00:08:13.871Z,4.24
2022-11-13T00:12:34.523Z,4.17
2022-11-13T00:16:54.861Z,4.22
2022-11-13T00:21:27.125Z,4.31
2022-11-13T00:25:47.816Z,4.29
2022-11-13T00:30:08.902Z,4.19
2022-11-13T00:39:10.107Z,3.91
2022-11-13T00:43:30.473Z,3.83
2022-11-13T00:47:50.962Z,3.93
2022-11-13T00:52:11.337Z,4.04
2022-11-13T00:56:31.819Z,4.12
2022-11-13T01:00:52.584Z,4.05
2022-11-13T01:05:13.300Z,3.99
2022-11-13T01:09:34.089Z,3.89
2022-11-13T01:13:55.977Z,3.90
2022-11-13T01:18:16.679Z,3.81
2022-11-13T01:22:37.642Z,3.77
2022-11-13T01:26:58.209Z,3.80
2022-11-13T01:31:22.719Z,3.82
2022-11-13T01:35:43.310Z,3.82
2022-11-13T01:40:04.435Z,3.71
2022-11-13T01:44:24.879Z,3.63
2022-11-13T01:48:50.085Z,3.63
2022-11-13T01:53:10.935Z,3.66
2022-11-13T01:57:31.557Z,3.58
2022-11-13T02:01:52.930Z,3.57
2022-11-13T02:06:14.073Z,3.33
2022-11-13T02:10:34.728Z,3.31
2022-11-13T02:14:58.688Z,3.24
2022-11-13T02:19:31.470Z,3.25
2022-11-13T02:24:23.559Z,3.33
2022-11-13T02:28:43.842Z,3.41
2022-11-13T02:33:21.439Z,3.40
2022-11-13T02:37:42.410Z,3.27
2022-11-13T02:42:03.219Z,3.23
2022-11-13T02:46:23.917Z,3.17
2022-11-13T02:50:44.752Z,3.10
2022-11-13T02:55:05.805Z,3.12
2022-11-13T02:59:26.442Z,3.20
2022-11-13T03:04:02.327Z,3.26
2022-11-13T03:08:25.998Z,3.25
2022-11-13T03:12:46.998Z,3.23
2022-11-13T03:17:07.611Z,3.19
2022-11-13T03:21:28.623Z,3.15
2022-11-13T03:25:49.170Z,3.16
2022-11-13T03:30:10.200Z,3.21
2022-11-13T03:34:30.876Z,3.23
2022-11-13T03:38:51.139Z,3.15
2022-11-13T03:43:11.486Z,3.11
2022-11-13T03:47:31.852Z,3.10
2022-11-13T03:51:52.370Z,3.07
2022-11-13T03:56:12.804Z,3.06
2022-11-13T04:00:33.702Z,3.05
2022-11-13T04:04:54.161Z,3.05
2022-11-13T04:09:14.824Z,3.04
2022-11-13T04:13:35.737Z,3.00
2022-11-13T04:17:56.358Z,2.97
2022-11-13T04:22:16.767Z,2.76
2022-11-13T04:26:37.241Z,2.70
2022-11-13T04:30:58.002Z,2.74
2022-11-13T04:35:18.769Z,2.62
2022-11-13T04:39:39.687Z,2.66
2022-11-13T04:44:00.058Z,2.60
2022-11-13T04:48:20.644Z,2.66
2022-11-13T04:52:42.600Z,2.75
2022-11-13T04:57:03.112Z,2.75
2022-11-13T05:01:23.569Z,2.62
2022-11-13T05:05:44.194Z,2.60
2022-11-13T05:10:05.575Z,2.50
2022-11-13T05:14:26.101Z,2.53
2022-11-13T05:18:46.667Z,2.53
2022-11-13T05:23:07.277Z,2.47
2022-11-13T05:27:27.766Z,2.40
2022-11-13T05:31:48.288Z,2.41
2022-11-13T05:36:12.700Z,2.51
2022-11-13T05:40:33.088Z,2.52
2022-11-13T05:44:53.552Z,2.56
2022-11-13T05:49:14.264Z,2.58
2022-11-13T05:53:35.594Z,2.51
2022-11-13T05:57:58.753Z,2.42
2022-11-13T06:02:19.306Z,2.32
2022-11-13T06:06:39.964Z,2.24
2022-11-13T06:11:02.404Z,2.09
2022-11-13T06:15:23.077Z,2.07
2022-11-13T06:19:44.836Z,2.05
2022-11-13T06:24:06.661Z,2.12
2022-11-13T06:28:27.869Z,2.21
2022-11-13T06:32:53.392Z,2.18
2022-11-13T06:37:13.783Z,2.09
2022-11-13T06:41:34.283Z,2.14
2022-11-13T06:45:55.690Z,2.10
2022-11-13T06:50:16.341Z,2.13
2022-11-13T06:54:36.916Z,2.18
2022-11-13T06:58:57.343Z,2.21
2022-11-13T07:03:19.613Z,2.28
2022-11-13T07:07:40.220Z,2.32
2022-11-13T07:12:00.813Z,2.39
2022-11-13T07:16:21.508Z,2.49
2022-11-13T07:20:42.098Z,2.62
2022-11-13T07:25:02.597Z,2.56
2022-11-13T07:29:23.121Z,2.62
2022-11-13T07:33:44.412Z,2.66
2022-11-13T07:38:04.730Z,2.76
2022-11-13T07:42:25.386Z,2.90
2022-11-13T07:46:45.716Z,3.00
2022-11-13T07:51:06.292Z,3.10
2022-11-13T07:55:27.390Z,3.17
2022-11-13T07:59:47.955Z,3.17
2022-11-13T08:04:08.291Z,3.33
2022-11-13T08:08:29.036Z,3.50
2022-11-13T08:12:58.893Z,3.62
2022-11-13T08:17:19.427Z,3.72
2022-11-13T08:21:39.808Z,3.91
2022-11-13T08:26:04.517Z,4.07
2022-11-13T08:30:27.144Z,4.26
2022-11-13T08:34:47.937Z,4.63
2022-11-13T08:39:09.568Z,4.87
2022-11-13T08:43:30.454Z,5.00
2022-11-13T08:47:51.057Z,5.18
2022-11-13T08:52:11.359Z,5.36
2022-11-13T08:56:31.658Z,5.54
2022-11-13T09:00:52.193Z,5.78
2022-11-13T09:05:12.774Z,6.05
2022-11-13T09:09:34.440Z,6.29
2022-11-13T09:13:55.414Z,6.50
2022-11-13T09:18:15.937Z,6.72
2022-11-13T09:22:36.344Z,6.97
2022-11-13T09:26:56.876Z,7.21
2022-11-13T09:31:17.637Z,7.46
2022-11-13T09:35:38.106Z,7.66
2022-11-13T09:39:58.629Z,7.88
2022-11-13T09:44:31.802Z,8.12
2022-11-13T09:49:15.999Z,8.41
2022-11-13T09:53:38.983Z,8.67
2022-11-13T09:58:37.484Z,8.93
2022-11-13T10:03:33.417Z,9.19
2022-11-13T10:08:14.096Z,9.48
2022-11-13T10:12:35.040Z,9.67
2022-11-13T10:17:22.313Z,9.90
2022-11-13T10:21:52.079Z,10.15
2022-11-13T10:26:19.304Z,10.42
2022-11-13T10:30:40.688Z,10.67
2022-11-13T10:35:20.223Z,10.95
2022-11-13T10:39:44.287Z,11.14
2022-11-13T10:44:25.831Z,11.41
2022-11-13T10:48:46.277Z,11.65
2022-11-13T10:53:18.182Z,11.85
2022-11-13T10:57:38.789Z,12.05
2022-11-13T11:02:22.379Z,12.24
2022-11-13T11:07:19.098Z,12.42
2022-11-13T11:11:42.348Z,12.45
2022-11-13T11:16:05.793Z,12.58
2022-11-13T11:20:41.488Z,12.70
2022-11-13T11:25:06.190Z,12.85
2022-11-13T11:29:44.591Z,12.99
2022-11-13T11:34:23.829Z,13.12
2022-11-13T11:39:00.572Z,13.27
2022-11-13T11:43:51.495Z,13.53
2022-11-13T11:48:21.767Z,13.64
2022-11-13T11:52:51.607Z,13.74
2022-11-13T11:57:49.804Z,13.74
2022-11-13T12:02:43.420Z,13.70
2022-11-13T12:07:22.477Z,13.70
2022-11-13T12:12:01.948Z,13.69
2022-11-13T12:16:35.180Z,13.72
2022-11-13T12:21:01.528Z,13.79
2022-11-13T12:25:35.701Z,13.89
2022-11-13T12:30:14.065Z,13.97
2022-11-13T12:34:37.889Z,14.04
2022-11-13T12:39:05.997Z,14.11
2022-11-13T12:43:48.327Z,14.13
2022-11-13T12:48:36.279Z,14.17
2022-11-13T12:53:00.910Z,14.22
2022-11-13T12:57:29.988Z,14.24
2022-11-13T13:02:17.402Z,14.26
2022-11-13T13:07:13.181Z,14.27
2022-11-13T13:12:11.625Z,14.23
2022-11-13T13:16:32.323Z,14.20
2022-11-13T13:21:14.369Z,14.18
2022-11-13T13:25:36.020Z,14.22
2022-11-13T13:29:57.667Z,14.33
2022-11-13T13:34:39.507Z,14.33
2022-11-13T13:39:19.023Z,14.21
2022-11-13T13:43:45.627Z,14.17
2022-11-13T13:48:14.709Z,14.10
2022-11-13T13:52:36.652Z,14.02
2022-11-13T13:56:57.952Z,13.81
2022-11-13T14:01:30.991Z,13.68
2022-11-13T14:05:52.856Z,13.63
2022-11-13T14:10:20.368Z,13.60
2022-11-13T14:14:41.076Z,13.56
2022-11-13T14:19:05.398Z,13.49
2022-11-13T14:23:37.422Z,13.40
2022-11-13T14:27:57.762Z,13.36
2022-11-13T14:32:22.402Z,13.28
2022-11-13T14:36:43.777Z,13.19
2022-11-13T14:41:04.580Z,13.09
2022-11-13T14:45:30.228Z,13.00
2022-11-13T14:49:51.055Z,12.88
2022-11-13T14:54:53.265Z,12.82
2022-11-13T14:59:26.787Z,12.74
2022-11-13T15:03:49.566Z,12.69
2022-11-13T15:08:14.252Z,12.61
2022-11-13T15:12:34.892Z,12.52
2022-11-13T15:16:55.403Z,12.46
2022-11-13T15:21:15.904Z,12.37
2022-11-13T15:25:36.733Z,12.29
2022-11-13T15:29:57.324Z,12.19
2022-11-13T15:34:18.186Z,12.06
2022-11-13T15:38:39.481Z,11.94
2022-11-13T15:43:01.250Z,11.77
2022-11-13T15:47:28.542Z,11.62
2022-11-13T15:51:49.693Z,11.41
2022-11-13T15:56:10.563Z,11.20
2022-11-13T16:00:32.600Z,11.01
2022-11-13T16:04:56.989Z,10.85
2022-11-13T16:09:18.128Z,10.64
2022-11-13T16:13:38.850Z,10.33
2022-11-13T16:18:01.034Z,10.12
2022-11-13T16:22:25.059Z,9.99
2022-11-13T16:26:50.736Z,9.80
2022-11-13T16:31:11.459Z,9.58
2022-11-13T16:35:32.127Z,9.36
2022-11-13T16:39:52.693Z,9.19
2022-11-13T16:44:13.367Z,9.05
2022-11-13T16:48:33.960Z,8.89
2022-11-13T16:52:54.562Z,8.80
2022-11-13T16:57:15.026Z,8.69
2022-11-13T17:01:35.808Z,8.44
2022-11-13T17:05:56.866Z,8.23
2022-11-13T17:10:35.827Z,8.20
2022-11-13T17:14:56.115Z,8.12
2022-11-13T17:19:16.827Z,8.02
2022-11-13T17:23:37.974Z,7.82
2022-11-13T17:27:58.719Z,7.67
2022-11-13T17:32:19.091Z,7.50
2022-11-13T17:36:39.685Z,7.37
2022-11-13T17:41:08.206Z,7.34
2022-11-13T17:45:29.041Z,7.24
2022-11-13T17:49:49.556Z,6.94
2022-11-13T17:54:10.220Z,6.92
2022-11-13T17:58:30.789Z,6.92
2022-11-13T18:02:51.232Z,6.81
2022-11-13T18:07:11.655Z,6.71
2022-11-13T18:11:32.066Z,6.64
2022-11-13T18:15:52.477Z,6.63
2022-11-13T18:20:12.910Z,6.51
2022-11-13T18:24:33.451Z,6.47
2022-11-13T18:28:54.109Z,6.22
2022-11-13T18:33:14.607Z,6.06
2022-11-13T18:37:35.378Z,6.06
2022-11-13T18:41:59.135Z,5.96
2022-11-13T18:46:21.398Z,5.97
2022-11-13T18:50:41.818Z,5.93
2022-11-13T18:55:02.291Z,5.78
2022-11-13T18:59:22.741Z,5.61
2022-11-13T19:04:01.279Z,5.63
2022-11-13T19:08:24.368Z,5.62
2022-11-13T19:12:44.856Z,5.65
2022-11-13T19:17:05.332Z,5.71
2022-11-13T19:21:28.931Z,5.59
2022-11-13T19:25:49.417Z,5.47
2022-11-13T19:30:10.146Z,5.47
2022-11-13T19:34:30.745Z,5.36
2022-11-13T19:38:52.614Z,5.33
2022-11-13T19:43:13.161Z,5.28
2022-11-13T19:47:33.672Z,5.24
2022-11-13T19:51:54.999Z,5.19
2022-11-13T19:56:21.269Z,5.22
2022-11-13T20:00:41.736Z,5.09
2022-11-13T20:05:02.290Z,5.04
2022-11-13T20:09:22.832Z,4.93
2022-11-13T20:13:43.802Z,4.89
2022-11-13T20:18:04.390Z,4.78
2022-11-13T20:22:25.135Z,4.76
2022-11-13T20:26:45.926Z,4.75
2022-11-13T20:31:16.309Z,4.72
2022-11-13T20:35:37.213Z,4.59
2022-11-13T20:39:57.815Z,4.42
2022-11-13T20:44:18.178Z,4.48
2022-11-13T20:48:38.591Z,4.41
2022-11-13T20:52:59.371Z,4.43
2022-11-13T20:57:21.264Z,4.49
2022-11-13T21:01:41.953Z,4.45
2022-11-13T21:06:02.348Z,4.33
2022-11-13T21:10:22.805Z,4.27
2022-11-13T21:14:44.128Z,4.07
2022-11-13T21:19:04.932Z,4.05
2022-11-13T21:23:25.451Z,4.11
2022-11-13T21:27:45.740Z,4.18
2022-11-13T21:32:06.158Z,4.20
2022-11-13T21:36:28.721Z,4.16
2022-11-13T21:41:09.129Z,4.10
2022-11-13T21:45:29.467Z,3.97
2022-11-13T21:49:50.197Z,3.96
2022-11-13T21:54:10.977Z,4.02
2022-11-13T21:58:33.400Z,4.03
2022-11-13T22:02:53.738Z,3.89
2022-11-13T22:07:14.284Z,3.68
2022-11-13T22:11:36.506Z,3.62
2022-11-13T22:15:57.286Z,3.57
2022-11-13T22:20:17.948Z,3.63
2022-11-13T22:24:38.704Z,3.63
2022-11-13T22:28:59.943Z,3.56
2022-11-13T22:33:20.453Z,3.62
2022-11-13T22:37:41.178Z,3.63
2022-11-13T22:42:01.510Z,3.62
2022-11-13T22:46:24.477Z,3.62
2022-11-13T22:50:44.933Z,3.67
2022-11-13T22:55:06.083Z,3.61
2022-11-13T22:59:26.790Z,3.36
2022-11-13T23:03:48.897Z,3.41
2022-11-13T23:08:09.292Z,3.52
2022-11-13T23:12:29.697Z,3.49
2022-11-13T23:16:50.163Z,3.51
2022-11-13T23:21:12.715Z,3.54
2022-11-13T23:25:34.210Z,3.59
2022-11-13T23:29:54.765Z,3.55
2022-11-13T23:34:26.918Z,3.56
2022-11-13T23:38:56.192Z,3.59
2022-11-13T23:43:16.905Z,3.59
2022-11-13T23:47:37.265Z,3.56
2022-11-13T23:51:57.871Z,3.55
2022-11-13T23:56:18.248Z,3.44
